createdAt,value
2023-05-15T00:01:51.932Z,25
2023-05-15T00:04:22.750Z,25
2023-05-15T00:06:53.763Z,31
2023-05-15T00:09:24.286Z,27
2023-05-15T00:11:55.118Z,23
2023-05-15T00:14:26.220Z,28
2023-05-15T00:16:57.093Z,29
2023-05-15T00:19:28.472Z,30
2023-05-15T00:21:59.177Z,29
2023-05-15T00:24:30.102Z,25
2023-05-15T00:27:01.332Z,33
2023-05-15T00:29:33.282Z,28
2023-05-15T00:32:03.945Z,31
2023-05-15T00:34:34.810Z,24
2023-05-15T00:37:05.818Z,28
2023-05-15T00:39:37.077Z,29
2023-05-15T00:42:07.531Z,25
2023-05-15T00:44:38.428Z,24
2023-05-15T00:47:09.375Z,23
2023-05-15T00:49:40.668Z,25
2023-05-15T00:52:11.983Z,24
2023-05-15T00:54:42.433Z,29
2023-05-15T00:57:13.182Z,24
2023-05-15T00:59:43.725Z,24
2023-05-15T01:02:14.779Z,27
2023-05-15T01:04:45.647Z,29
2023-05-15T01:07:16.726Z,31
2023-05-15T01:09:51.248Z,24
2023-05-15T01:12:21.782Z,35
2023-05-15T01:14:52.833Z,26
2023-05-15T01:17:24.055Z,27
2023-05-15T01:19:55.086Z,24
2023-05-15T01:22:26.419Z,28
2023-05-15T01:24:57.205Z,25
2023-05-15T01:27:28.960Z,24
2023-05-15T01:29:59.778Z,25
2023-05-15T01:32:31.264Z,28
2023-05-15T01:35:02.194Z,24
2023-05-15T01:37:33.409Z,26
2023-05-15T01:40:04.095Z,24
2023-05-15T01:42:35.594Z,24
2023-05-15T01:45:06.872Z,28
2023-05-15T01:47:37.814Z,28
2023-05-15T01:50:09.030Z,28
2023-05-15T01:52:40.458Z,24
2023-05-15T01:55:11.231Z,24
2023-05-15T01:57:42.365Z,26
2023-05-15T02:00:13.111Z,24
2023-05-15T02:02:44.404Z,27
2023-05-15T02:05:16.117Z,24
2023-05-15T02:07:47.044Z,29
2023-05-15T02:10:18.086Z,24
2023-05-15T02:12:48.975Z,21
2023-05-15T02:15:20.039Z,22
2023-05-15T02:17:50.855Z,25
2023-05-15T02:20:21.865Z,26
2023-05-15T02:22:52.912Z,24
2023-05-15T02:25:24.979Z,28
2023-05-15T02:27:55.333Z,25
2023-05-15T02:30:26.797Z,24
2023-05-15T02:32:57.662Z,24
2023-05-15T02:35:28.356Z,24
2023-05-15T02:38:00.835Z,32
2023-05-15T02:40:32.848Z,25
2023-05-15T02:43:02.820Z,28
2023-05-15T02:45:34.139Z,28
2023-05-15T02:48:05.182Z,21
2023-05-15T02:50:35.996Z,24
2023-05-15T02:53:07.448Z,24
2023-05-15T02:55:38.307Z,23
2023-05-15T02:58:09.367Z,24
2023-05-15T03:00:40.302Z,28
2023-05-15T03:03:11.434Z,25
2023-05-15T03:05:42.605Z,25
2023-05-15T03:08:13.515Z,21
2023-05-15T03:10:45.162Z,22
2023-05-15T03:13:16.120Z,27
2023-05-15T03:15:47.418Z,27
2023-05-15T03:18:18.878Z,24
2023-05-15T03:20:49.072Z,25
2023-05-15T03:23:20.030Z,25
2023-05-15T03:25:51.397Z,27
2023-05-15T03:28:22.304Z,25
2023-05-15T03:30:53.620Z,28
2023-05-15T03:33:24.309Z,23
2023-05-15T03:35:55.227Z,27
2023-05-15T03:38:26.146Z,16
2023-05-15T03:40:56.905Z,25
2023-05-15T03:43:27.802Z,30
2023-05-15T03:45:58.712Z,23
2023-05-15T03:48:29.592Z,24
2023-05-15T03:51:00.654Z,27
2023-05-15T03:53:31.742Z,29
2023-05-15T03:56:02.251Z,25
2023-05-15T03:58:33.220Z,24
2023-05-15T04:01:04.211Z,24
2023-05-15T04:03:35.062Z,25
2023-05-15T04:06:05.893Z,28
2023-05-15T04:08:38.708Z,24
2023-05-15T04:11:08.194Z,23
2023-05-15T04:13:39.353Z,24
2023-05-15T04:16:10.164Z,24
2023-05-15T04:18:41.351Z,29
2023-05-15T04:21:12.119Z,32
2023-05-15T04:23:42.710Z,25
2023-05-15T04:26:13.733Z,30
2023-05-15T04:28:49.489Z,25
2023-05-15T04:31:15.314Z,27
2023-05-15T04:33:46.068Z,24
2023-05-15T04:36:16.800Z,28
2023-05-15T04:38:47.827Z,36
2023-05-15T04:41:19.221Z,40
2023-05-15T04:43:49.747Z,28
2023-05-15T04:46:21.023Z,32
2023-05-15T04:48:52.272Z,29
2023-05-15T04:51:23.297Z,32
2023-05-15T04:53:54.042Z,28
2023-05-15T04:56:24.714Z,32
2023-05-15T04:58:55.412Z,24
2023-05-15T05:01:26.117Z,39
2023-05-15T05:03:56.960Z,39
2023-05-15T05:06:29.773Z,50
2023-05-15T05:08:58.797Z,25
2023-05-15T05:11:29.613Z,29
2023-05-15T05:14:00.164Z,28
2023-05-15T05:16:30.710Z,29
2023-05-15T05:19:01.492Z,33
2023-05-15T05:21:32.203Z,32
2023-05-15T05:24:03.538Z,33
2023-05-15T05:26:34.569Z,32
2023-05-15T05:29:05.601Z,47
2023-05-15T05:31:35.155Z,36
2023-05-15T05:34:06.011Z,29
2023-05-15T05:36:36.859Z,29
2023-05-15T05:39:07.316Z,38
2023-05-15T05:41:38.310Z,32
2023-05-15T05:44:09.981Z,33
2023-05-15T05:46:41.051Z,31
2023-05-15T05:49:11.794Z,29
2023-05-15T05:51:42.636Z,32
2023-05-15T05:54:13.884Z,26
2023-05-15T05:56:45.343Z,31
2023-05-15T05:59:16.569Z,30
2023-05-15T06:01:48.449Z,29
2023-05-15T06:04:19.200Z,36
2023-05-15T06:06:49.666Z,39
2023-05-15T06:09:20.688Z,31
2023-05-15T06:11:51.978Z,36
2023-05-15T06:14:22.864Z,33
2023-05-15T06:16:53.645Z,34
2023-05-15T06:19:24.214Z,38
2023-05-15T06:21:54.889Z,28
2023-05-15T06:24:25.619Z,41
2023-05-15T06:26:57.137Z,32
2023-05-15T06:29:29.743Z,32
2023-05-15T06:32:00.313Z,34
2023-05-15T06:34:30.968Z,35
2023-05-15T06:37:01.260Z,35
2023-05-15T06:39:31.833Z,33
2023-05-15T06:42:02.541Z,31
2023-05-15T06:44:33.638Z,33
2023-05-15T06:47:05.471Z,36
2023-05-15T06:49:36.017Z,29
2023-05-15T06:52:06.832Z,28
2023-05-15T06:54:37.568Z,30
2023-05-15T06:57:07.611Z,28
2023-05-15T06:59:38.032Z,31
2023-05-15T07:02:09.164Z,28
2023-05-15T07:04:39.821Z,24
2023-05-15T07:07:11.596Z,53
2023-05-15T07:09:42.905Z,50
2023-05-15T07:12:12.825Z,29
2023-05-15T07:14:43.744Z,39
2023-05-15T07:17:14.752Z,31
2023-05-15T07:19:45.984Z,28
2023-05-15T07:22:16.548Z,39
2023-05-15T07:24:47.120Z,36
2023-05-15T07:27:17.729Z,39
2023-05-15T07:29:48.933Z,29
2023-05-15T07:32:19.041Z,34
2023-05-15T07:34:49.742Z,32
2023-05-15T07:37:20.569Z,24
2023-05-15T07:39:51.120Z,29
2023-05-15T07:42:21.708Z,29
2023-05-15T07:44:52.434Z,29
2023-05-15T07:47:22.501Z,32
2023-05-15T07:49:53.215Z,33
2023-05-15T07:52:26.152Z,28
2023-05-15T07:54:59.319Z,25
2023-05-15T07:57:31.876Z,26
2023-05-15T08:00:03.655Z,28
2023-05-15T08:02:35.802Z,28
2023-05-15T08:05:06.219Z,28
2023-05-15T08:07:38.294Z,29
2023-05-15T08:10:09.254Z,29
2023-05-15T08:12:41.080Z,28
2023-05-15T08:15:16.488Z,27
2023-05-15T08:17:47.339Z,25
2023-05-15T08:20:20.924Z,28
2023-05-15T08:22:51.343Z,30
2023-05-15T08:25:21.789Z,35
2023-05-15T08:27:52.260Z,32
2023-05-15T08:30:22.859Z,36
2023-05-15T08:32:53.394Z,29
2023-05-15T08:35:30.824Z,28
2023-05-15T08:38:05.818Z,30
2023-05-15T08:40:39.400Z,29
2023-05-15T08:43:07.103Z,32
2023-05-15T08:45:37.827Z,24
2023-05-15T08:48:10.547Z,31
2023-05-15T08:50:42.192Z,29
2023-05-15T08:53:12.837Z,33
2023-05-15T08:55:43.637Z,33
2023-05-15T08:58:14.680Z,32
2023-05-15T09:00:51.237Z,24
2023-05-15T09:03:21.665Z,33
2023-05-15T09:05:54.416Z,32
2023-05-15T09:08:24.830Z,31
2023-05-15T09:10:56.198Z,28
2023-05-15T09:13:27.317Z,37
2023-05-15T09:15:58.041Z,36
2023-05-15T09:18:33.204Z,30
2023-05-15T09:21:04.108Z,29
2023-05-15T09:23:35.119Z,30
2023-05-15T09:26:06.781Z,35
2023-05-15T09:28:37.137Z,35
2023-05-15T09:31:08.586Z,35
2023-05-15T09:33:39.507Z,36
2023-05-15T09:36:10.415Z,32
2023-05-15T09:38:47.022Z,32
2023-05-15T09:41:15.797Z,39
2023-05-15T09:43:46.186Z,36
2023-05-15T09:46:16.890Z,34
2023-05-15T09:48:47.100Z,32
2023-05-15T09:51:17.234Z,36
2023-05-15T09:53:47.728Z,44
2023-05-15T09:56:22.589Z,38
2023-05-15T09:58:53.511Z,39
2023-05-15T10:01:23.854Z,40
2023-05-15T10:03:54.245Z,36
2023-05-15T10:06:24.342Z,40
2023-05-15T10:08:54.761Z,35
2023-05-15T10:11:25.378Z,40
2023-05-15T10:13:59.514Z,35
2023-05-15T10:16:30.762Z,32
2023-05-15T10:19:04.903Z,30
2023-05-15T10:21:33.494Z,29
2023-05-15T10:24:08.192Z,32
2023-05-15T10:26:39.507Z,44
2023-05-15T10:29:10.250Z,29
2023-05-15T10:31:44.627Z,27
2023-05-15T10:34:15.071Z,28
2023-05-15T10:36:44.320Z,36
2023-05-15T10:39:18.542Z,38
2023-05-15T10:41:53.955Z,26
2023-05-15T10:44:27.410Z,29
2023-05-15T10:46:58.319Z,27
2023-05-15T10:49:28.599Z,34
2023-05-15T10:52:04.601Z,50
2023-05-15T10:54:34.997Z,37
2023-05-15T10:57:07.493Z,33
2023-05-15T10:59:38.027Z,29
2023-05-15T11:02:17.585Z,28
2023-05-15T11:04:48.113Z,29
2023-05-15T11:07:18.704Z,28
2023-05-15T11:09:49.433Z,37
2023-05-15T11:12:20.714Z,39
2023-05-15T11:14:51.556Z,33
2023-05-15T11:17:26.661Z,32
2023-05-15T11:19:56.615Z,30
2023-05-15T11:22:26.996Z,29
2023-05-15T11:24:57.273Z,35
2023-05-15T11:27:30.153Z,31
2023-05-15T11:30:00.850Z,35
2023-05-15T11:32:32.900Z,26
2023-05-15T11:35:06.399Z,34
2023-05-15T11:37:38.074Z,35
2023-05-15T11:40:11.104Z,28
2023-05-15T11:42:41.870Z,32
2023-05-15T11:45:11.817Z,28
2023-05-15T11:47:42.435Z,24
2023-05-15T11:50:14.298Z,29
2023-05-15T11:52:45.460Z,32
2023-05-15T11:55:15.819Z,31
2023-05-15T11:57:46.357Z,29
2023-05-15T12:00:17.845Z,25
2023-05-15T12:02:52.264Z,25
2023-05-15T12:05:22.676Z,21
2023-05-15T12:07:53.220Z,24
2023-05-15T12:10:24.310Z,27
2023-05-15T12:13:01.658Z,25
2023-05-15T12:15:30.876Z,29
2023-05-15T12:18:03.115Z,28
2023-05-15T12:20:34.226Z,23
2023-05-15T12:23:04.922Z,24
2023-05-15T12:25:37.537Z,29
2023-05-15T12:28:07.799Z,26
2023-05-15T12:30:39.275Z,24
2023-05-15T12:33:11.863Z,25
2023-05-15T12:35:44.040Z,22
2023-05-15T12:38:14.458Z,27
2023-05-15T12:40:45.100Z,27
2023-05-15T12:43:16.845Z,21
2023-05-15T12:45:48.016Z,26
2023-05-15T12:48:19.810Z,29
2023-05-15T12:50:54.664Z,25
2023-05-15T12:53:25.158Z,27
2023-05-15T12:55:56.053Z,24
2023-05-15T12:58:29.091Z,27
2023-05-15T13:00:59.934Z,23
2023-05-15T13:03:32.676Z,28
2023-05-15T13:06:05.482Z,25
2023-05-15T13:08:35.791Z,23
2023-05-15T13:11:09.930Z,23
2023-05-15T13:13:40.476Z,24
2023-05-15T13:16:13.289Z,20
2023-05-15T13:18:46.027Z,27
2023-05-15T13:21:16.476Z,17
2023-05-15T13:23:50.088Z,28
2023-05-15T13:26:21.072Z,21
2023-05-15T13:28:52.436Z,22
2023-05-15T13:31:28.185Z,25
2023-05-15T13:34:01.914Z,24
2023-05-15T13:36:39.101Z,18
2023-05-15T13:39:11.416Z,21
2023-05-15T13:41:43.847Z,24
2023-05-15T13:44:17.857Z,26
2023-05-15T13:46:49.995Z,31
2023-05-15T13:49:20.763Z,24
2023-05-15T13:51:52.827Z,28
2023-05-15T13:54:26.540Z,36
2023-05-15T13:57:01.751Z,31
2023-05-15T13:59:35.578Z,32
2023-05-15T14:02:10.537Z,27
2023-05-15T14:04:45.724Z,60
2023-05-15T14:07:18.538Z,37
2023-05-15T14:09:51.108Z,25
2023-05-15T14:15:25.548Z,20
2023-05-15T14:17:59.770Z,22
2023-05-15T14:20:32.462Z,20
2023-05-15T14:23:09.472Z,20
2023-05-15T14:25:42.613Z,18
2023-05-15T14:28:16.519Z,27
2023-05-15T14:30:55.345Z,22
2023-05-15T14:33:28.331Z,22
2023-05-15T14:36:02.344Z,28
2023-05-15T14:38:35.490Z,22
2023-05-15T14:41:11.490Z,22
2023-05-15T14:43:43.764Z,26
2023-05-15T14:46:16.814Z,26
2023-05-15T14:48:50.882Z,36
2023-05-15T14:51:22.805Z,27
2023-05-15T14:53:57.751Z,21
2023-05-15T14:56:30.237Z,21
2023-05-15T14:59:03.526Z,30
2023-05-15T15:01:36.830Z,22
2023-05-15T15:04:09.354Z,35
2023-05-15T15:06:40.743Z,40
2023-05-15T15:09:13.320Z,35
2023-05-15T15:11:45.289Z,38
2023-05-15T15:14:19.803Z,32
2023-05-15T15:16:54.822Z,45
2023-05-15T15:19:30.658Z,32
2023-05-15T15:22:01.811Z,35
2023-05-15T15:24:36.550Z,36
2023-05-15T15:27:13.811Z,26
2023-05-15T15:29:48.886Z,32
2023-05-15T15:32:23.779Z,38
2023-05-15T15:34:56.139Z,44
2023-05-15T15:37:34.788Z,56
2023-05-15T15:40:12.785Z,51
2023-05-15T15:45:48.706Z,30
2023-05-15T15:48:21.670Z,32
2023-05-15T15:50:53.660Z,30
2023-05-15T15:53:23.754Z,34
2023-05-15T15:55:55.818Z,36
2023-05-15T15:58:30.828Z,42
2023-05-15T16:01:03.961Z,35
2023-05-15T16:03:36.071Z,33
2023-05-15T16:06:08.001Z,38
2023-05-15T16:08:40.575Z,37
2023-05-15T16:11:12.618Z,44
2023-05-15T16:13:46.015Z,42
2023-05-15T16:16:18.086Z,44
2023-05-15T16:18:50.081Z,44
2023-05-15T16:21:22.131Z,47
2023-05-15T16:23:54.374Z,47
2023-05-15T16:26:27.263Z,52
2023-05-15T16:29:00.345Z,50
2023-05-15T16:31:33.365Z,49
2023-05-15T16:34:06.632Z,52
2023-05-15T16:36:39.626Z,52
2023-05-15T16:39:11.568Z,48
2023-05-15T16:41:44.257Z,49
2023-05-15T16:44:16.949Z,49
2023-05-15T16:46:52.220Z,48
2023-05-15T16:49:24.045Z,52
2023-05-15T16:51:56.339Z,47
2023-05-15T16:54:28.266Z,51
2023-05-15T16:57:01.563Z,46
2023-05-15T16:59:30.946Z,57
2023-05-15T17:02:00.950Z,52
2023-05-15T17:04:35.908Z,48
2023-05-15T17:07:09.488Z,52
2023-05-15T17:09:40.755Z,56
2023-05-15T17:12:11.577Z,54
2023-05-15T17:14:42.253Z,57
2023-05-15T17:17:14.799Z,51
2023-05-15T17:19:46.052Z,49
2023-05-15T17:22:16.338Z,48
2023-05-15T17:24:51.122Z,48
2023-05-15T17:27:18.856Z,45
2023-05-15T17:29:50.296Z,41
2023-05-15T17:32:21.186Z,52
2023-05-15T17:34:51.595Z,44
2023-05-15T17:37:22.423Z,43
2023-05-15T17:39:55.676Z,48
2023-05-15T17:42:27.996Z,43
2023-05-15T17:45:18.984Z,54
2023-05-15T17:47:48.752Z,52
2023-05-15T17:50:18.884Z,48
2023-05-15T17:52:59.123Z,56
2023-05-15T17:55:41.625Z,40
2023-05-15T17:58:17.896Z,51
2023-05-15T18:03:25.330Z,48
2023-05-15T18:05:58.052Z,45
2023-05-15T18:08:27.674Z,45
2023-05-15T18:11:14.183Z,44
2023-05-15T18:13:38.111Z,53
2023-05-15T18:16:08.850Z,51
2023-05-15T18:18:40.369Z,52
2023-05-15T18:21:10.459Z,53
2023-05-15T18:23:46.095Z,55
2023-05-15T18:26:16.713Z,52
2023-05-15T18:28:46.988Z,48
2023-05-15T18:31:21.190Z,40
2023-05-15T18:33:52.286Z,48
2023-05-15T18:36:22.417Z,46
2023-05-15T18:38:53.709Z,63
2023-05-15T18:41:27.141Z,49
2023-05-15T18:43:58.324Z,54
2023-05-15T18:46:29.483Z,60
2023-05-15T18:48:59.419Z,52
2023-05-15T18:51:37.587Z,44
2023-05-15T18:54:07.750Z,52
2023-05-15T18:56:38.034Z,56
2023-05-15T18:59:11.086Z,43
2023-05-15T19:01:41.327Z,48
2023-05-15T19:04:12.118Z,44
2023-05-15T19:06:43.567Z,45
2023-05-15T19:09:17.062Z,42
2023-05-15T19:11:46.837Z,40
2023-05-15T19:14:17.042Z,48
2023-05-15T19:16:48.154Z,50
2023-05-15T19:19:18.430Z,43
2023-05-15T19:21:49.268Z,44
2023-05-15T19:24:19.317Z,51
2023-05-15T19:26:50.574Z,41
2023-05-15T19:29:21.368Z,48
2023-05-15T19:31:51.686Z,45
2023-05-15T19:34:24.273Z,44
2023-05-15T19:36:54.597Z,52
2023-05-15T19:39:25.318Z,45
2023-05-15T19:41:55.692Z,44
2023-05-15T19:44:25.947Z,52
2023-05-15T19:46:57.218Z,45
2023-05-15T19:49:27.945Z,47
2023-05-15T19:51:59.263Z,49
2023-05-15T19:54:29.721Z,42
2023-05-15T19:57:01.317Z,47
2023-05-15T19:59:31.862Z,40
2023-05-15T20:02:02.671Z,41
2023-05-15T20:04:32.976Z,48
2023-05-15T20:07:04.599Z,41
2023-05-15T20:09:34.839Z,47
2023-05-15T20:12:05.602Z,44
2023-05-15T20:14:36.147Z,41
2023-05-15T20:17:06.837Z,42
2023-05-15T20:19:38.116Z,45
2023-05-15T20:22:08.329Z,56
2023-05-15T20:24:38.891Z,39
2023-05-15T20:27:08.978Z,48
2023-05-15T20:29:41.867Z,38
2023-05-15T20:32:16.352Z,44
2023-05-15T20:34:46.585Z,45
2023-05-15T20:37:16.920Z,48
2023-05-15T20:39:47.376Z,41
2023-05-15T20:42:17.969Z,44
2023-05-15T20:44:49.062Z,40
2023-05-15T20:47:19.722Z,29
2023-05-15T20:49:49.968Z,37
2023-05-15T20:52:20.092Z,36
2023-05-15T20:54:51.019Z,36
2023-05-15T20:57:21.335Z,36
2023-05-15T20:59:51.784Z,36
2023-05-15T21:02:22.095Z,36
2023-05-15T21:04:53.591Z,34
2023-05-15T21:07:23.974Z,39
2023-05-15T21:09:54.229Z,37
2023-05-15T21:12:24.696Z,41
2023-05-15T21:14:55.068Z,37
2023-05-15T21:17:25.958Z,47
2023-05-15T21:19:56.744Z,42
2023-05-15T21:22:31.638Z,36
2023-05-15T21:25:02.015Z,47
2023-05-15T21:27:32.699Z,34
2023-05-15T21:30:03.269Z,37
2023-05-15T21:32:33.896Z,36
2023-05-15T21:35:04.405Z,40
2023-05-15T21:37:35.770Z,36
2023-05-15T21:40:06.836Z,36
2023-05-15T21:42:37.093Z,40
2023-05-15T21:45:12.432Z,41
2023-05-15T21:47:43.295Z,36
2023-05-15T21:50:13.682Z,36
2023-05-15T21:52:44.088Z,41
2023-05-15T21:55:14.670Z,31
2023-05-15T21:57:45.516Z,37
2023-05-15T22:00:16.076Z,47
2023-05-15T22:02:48.346Z,38
2023-05-15T22:05:18.835Z,37
2023-05-15T22:07:49.200Z,36
2023-05-15T22:10:20.420Z,39
2023-05-15T22:12:50.953Z,35
2023-05-15T22:15:22.325Z,34
2023-05-15T22:17:54.351Z,36
2023-05-15T22:20:25.113Z,35
2023-05-15T22:22:56.441Z,36
2023-05-15T22:25:26.958Z,39
2023-05-15T22:28:06.551Z,32
2023-05-15T22:30:36.486Z,32
2023-05-15T22:33:09.870Z,36
2023-05-15T22:35:39.398Z,36
2023-05-15T22:38:09.655Z,40
2023-05-15T22:40:40.557Z,31
2023-05-15T22:43:10.904Z,32
2023-05-15T22:45:45.735Z,35
2023-05-15T22:48:16.799Z,36
2023-05-15T22:50:58.909Z,25
2023-05-15T22:53:33.806Z,33
2023-05-15T22:56:13.406Z,30
2023-05-15T22:58:44.026Z,36
2023-05-15T23:01:16.094Z,29
2023-05-15T23:03:45.869Z,30
2023-05-15T23:06:15.412Z,37
2023-05-15T23:08:46.221Z,36
2023-05-15T23:11:16.988Z,36
2023-05-15T23:13:48.033Z,35
2023-05-15T23:16:26.738Z,26
2023-05-15T23:18:57.965Z,33
2023-05-15T23:21:28.601Z,38
2023-05-15T23:23:59.278Z,36
2023-05-15T23:26:30.667Z,28
2023-05-15T23:29:01.276Z,30
2023-05-15T23:31:32.083Z,38
2023-05-15T23:34:02.633Z,28
2023-05-15T23:36:33.726Z,35
2023-05-15T23:39:04.249Z,32
2023-05-15T23:41:34.625Z,36
2023-05-15T23:44:05.759Z,38
2023-05-15T23:46:36.770Z,40
2023-05-15T23:49:08.315Z,36
2023-05-15T23:51:39.387Z,37
2023-05-15T23:54:10.158Z,35
2023-05-15T23:56:41.077Z,32
2023-05-15T23:59:12.239Z,34
